CheckWX is a tool to help pilots better visualize weather data.  It is not intended as a substitute for an official pre-flight weather briefing.

18:46:44 UTC

GQNO METAR
Nouakchott–Oumtounsy International Airport
Nouakchott, Mauritania
Current

47 mins ago

GQNO 261800Z 30016KT 9999 ////// 22/15 Q1012 NOSIG
Observed
Mar-26 @ 18:00 UTC
Wind
  • 300° at 16 KTS
Visibility
10,000+ meters
Temperature
22°C / 72°F
Dewpoint
15°C / 59°F
Humidity
65%
Altimeter
29.88" Hg
Pressure
1011.92 hPa
Previous

1 hour ago

GQNO 261730Z 29014KT 9999 ////// 22/14 Q1012 NOSIG
Observed
Mar-26 @ 17:30 UTC
Wind
  • 290° at 14 KTS
Visibility
10,000+ meters
Temperature
22°C / 72°F
Dewpoint
14°C / 57°F
Humidity
61%
Altimeter
29.88" Hg
Pressure
1011.92 hPa
Previous

2 hours ago

GQNO 261700Z 29013KT CAVOK 22/15 Q1012 NOSIG
Observed
Mar-26 @ 17:00 UTC
Wind
  • 290° at 13 KTS
Visibility
10,000+ meters
Flight Rules
VFR
Cloud Levels
  • Clear skies
Temperature
22°C / 72°F
Dewpoint
15°C / 59°F
Humidity
65%
Altimeter
29.88" Hg
Pressure
1011.92 hPa